sensor_id;sensor_type;location;lat;lon;timestamp;P1;durP1;ratioP1;P2;durP2;ratioP2
8596;SDS011;4336;49.310;8.646;2022-10-26T00:03:33;4.10;;;2.07;;
8596;SDS011;4336;49.310;8.646;2022-10-26T00:06:13;3.07;;;2.40;;
8596;SDS011;4336;49.310;8.646;2022-10-26T00:08:40;2.37;;;2.13;;
8596;SDS011;4336;49.310;8.646;2022-10-26T00:11:06;4.10;;;2.50;;
8596;SDS011;4336;49.310;8.646;2022-10-26T00:13:33;6.13;;;2.70;;
8596;SDS011;4336;49.310;8.646;2022-10-26T00:15:59;2.97;;;2.47;;
8596;SDS011;4336;49.310;8.646;2022-10-26T00:18:25;3.47;;;2.73;;
8596;SDS011;4336;49.310;8.646;2022-10-26T00:20:50;4.93;;;2.97;;
8596;SDS011;4336;49.310;8.646;2022-10-26T00:23:16;2.93;;;2.10;;
8596;SDS011;4336;49.310;8.646;2022-10-26T00:25:42;3.73;;;3.13;;
8596;SDS011;4336;49.310;8.646;2022-10-26T00:28:08;4.00;;;2.60;;
8596;SDS011;4336;49.310;8.646;2022-10-26T00:30:37;9.50;;;2.87;;
8596;SDS011;4336;49.310;8.646;2022-10-26T00:33:03;4.47;;;2.30;;
8596;SDS011;4336;49.310;8.646;2022-10-26T00:35:29;5.17;;;2.87;;
8596;SDS011;4336;49.310;8.646;2022-10-26T00:37:55;3.83;;;2.47;;
8596;SDS011;4336;49.310;8.646;2022-10-26T00:40:21;2.27;;;2.07;;
8596;SDS011;4336;49.310;8.646;2022-10-26T00:42:49;4.60;;;2.87;;
8596;SDS011;4336;49.310;8.646;2022-10-26T00:47:46;2.90;;;2.60;;
8596;SDS011;4336;49.310;8.646;2022-10-26T00:50:24;5.10;;;2.70;;
8596;SDS011;4336;49.310;8.646;2022-10-26T00:52:53;3.10;;;2.37;;
8596;SDS011;4336;49.310;8.646;2022-10-26T00:55:20;2.57;;;2.10;;
8596;SDS011;4336;49.310;8.646;2022-10-26T00:57:49;4.47;;;2.37;;
8596;SDS011;4336;49.310;8.646;2022-10-26T01:00:15;4.77;;;2.20;;
8596;SDS011;4336;49.310;8.646;2022-10-26T01:02:41;4.63;;;2.13;;
8596;SDS011;4336;49.310;8.646;2022-10-26T01:05:08;6.13;;;2.13;;
8596;SDS011;4336;49.310;8.646;2022-10-26T01:07:34;4.10;;;2.77;;
8596;SDS011;4336;49.310;8.646;2022-10-26T01:10:00;4.17;;;2.50;;
8596;SDS011;4336;49.310;8.646;2022-10-26T01:12:27;13.93;;;2.83;;
8596;SDS011;4336;49.310;8.646;2022-10-26T01:14:53;2.70;;;2.00;;
8596;SDS011;4336;49.310;8.646;2022-10-26T01:23:08;7.23;;;2.23;;
8596;SDS011;4336;49.310;8.646;2022-10-26T01:28:48;4.70;;;2.67;;
8596;SDS011;4336;49.310;8.646;2022-10-26T01:31:43;4.00;;;2.40;;
8596;SDS011;4336;49.310;8.646;2022-10-26T01:34:14;2.73;;;2.20;;
8596;SDS011;4336;49.310;8.646;2022-10-26T01:36:48;4.53;;;2.80;;
8596;SDS011;4336;49.310;8.646;2022-10-26T01:39:38;4.77;;;2.40;;
8596;SDS011;4336;49.310;8.646;2022-10-26T01:42:09;2.90;;;2.70;;
8596;SDS011;4336;49.310;8.646;2022-10-26T01:44:40;3.30;;;2.67;;
8596;SDS011;4336;49.310;8.646;2022-10-26T01:47:10;7.47;;;2.33;;
8596;SDS011;4336;49.310;8.646;2022-10-26T01:49:39;2.90;;;2.30;;
8596;SDS011;4336;49.310;8.646;2022-10-26T01:52:11;4.43;;;2.50;;
8596;SDS011;4336;49.310;8.646;2022-10-26T01:54:37;6.07;;;2.50;;
8596;SDS011;4336;49.310;8.646;2022-10-26T01:57:03;2.63;;;2.17;;
8596;SDS011;4336;49.310;8.646;2022-10-26T02:05:35;5.17;;;2.30;;
8596;SDS011;4336;49.310;8.646;2022-10-26T02:16:36;3.60;;;2.33;;
8596;SDS011;4336;49.310;8.646;2022-10-26T02:19:18;5.03;;;2.63;;
8596;SDS011;4336;49.310;8.646;2022-10-26T02:22:18;2.80;;;2.60;;
8596;SDS011;4336;49.310;8.646;2022-10-26T02:24:49;3.67;;;2.40;;
8596;SDS011;4336;49.310;8.646;2022-10-26T02:27:18;3.43;;;1.97;;
8596;SDS011;4336;49.310;8.646;2022-10-26T02:29:46;6.30;;;2.67;;
8596;SDS011;4336;49.310;8.646;2022-10-26T02:32:12;3.77;;;2.57;;
8596;SDS011;4336;49.310;8.646;2022-10-26T02:34:38;5.27;;;2.33;;
8596;SDS011;4336;49.310;8.646;2022-10-26T02:37:08;4.40;;;2.67;;
8596;SDS011;4336;49.310;8.646;2022-10-26T02:39:34;5.63;;;3.53;;
8596;SDS011;4336;49.310;8.646;2022-10-26T02:42:02;5.63;;;2.10;;
8596;SDS011;4336;49.310;8.646;2022-10-26T02:44:32;2.00;;;1.90;;
8596;SDS011;4336;49.310;8.646;2022-10-26T02:47:13;3.70;;;2.27;;
8596;SDS011;4336;49.310;8.646;2022-10-26T02:49:39;2.67;;;2.00;;
8596;SDS011;4336;49.310;8.646;2022-10-26T03:00:09;5.13;;;2.33;;
8596;SDS011;4336;49.310;8.646;2022-10-26T03:02:36;4.57;;;2.30;;
8596;SDS011;4336;49.310;8.646;2022-10-26T03:05:45;11.47;;;3.20;;
8596;SDS011;4336;49.310;8.646;2022-10-26T03:07:52;2.23;;;2.07;;
8596;SDS011;4336;49.310;8.646;2022-10-26T03:10:19;2.00;;;1.90;;
8596;SDS011;4336;49.310;8.646;2022-10-26T03:12:45;6.87;;;3.10;;
8596;SDS011;4336;49.310;8.646;2022-10-26T03:15:11;2.77;;;2.40;;
8596;SDS011;4336;49.310;8.646;2022-10-26T03:17:37;2.50;;;2.30;;
8596;SDS011;4336;49.310;8.646;2022-10-26T03:20:03;3.87;;;2.60;;
8596;SDS011;4336;49.310;8.646;2022-10-26T03:22:29;2.53;;;2.03;;
8596;SDS011;4336;49.310;8.646;2022-10-26T03:24:55;3.37;;;2.20;;
8596;SDS011;4336;49.310;8.646;2022-10-26T03:27:21;2.90;;;2.20;;
8596;SDS011;4336;49.310;8.646;2022-10-26T03:29:47;2.43;;;2.10;;
8596;SDS011;4336;49.310;8.646;2022-10-26T03:32:13;5.13;;;2.17;;
8596;SDS011;4336;49.310;8.646;2022-10-26T03:34:38;5.87;;;3.27;;
8596;SDS011;4336;49.310;8.646;2022-10-26T03:37:04;5.30;;;2.30;;
8596;SDS011;4336;49.310;8.646;2022-10-26T03:39:30;1.87;;;1.77;;
8596;SDS011;4336;49.310;8.646;2022-10-26T03:41:55;4.60;;;2.30;;
8596;SDS011;4336;49.310;8.646;2022-10-26T03:44:21;6.53;;;2.70;;
8596;SDS011;4336;49.310;8.646;2022-10-26T03:46:47;3.43;;;2.30;;
8596;SDS011;4336;49.310;8.646;2022-10-26T03:49:13;2.83;;;1.87;;
8596;SDS011;4336;49.310;8.646;2022-10-26T03:51:39;4.47;;;2.53;;
8596;SDS011;4336;49.310;8.646;2022-10-26T03:54:04;5.77;;;2.57;;
8596;SDS011;4336;49.310;8.646;2022-10-26T03:56:30;2.57;;;2.00;;
8596;SDS011;4336;49.310;8.646;2022-10-26T03:58:56;3.03;;;2.47;;
8596;SDS011;4336;49.310;8.646;2022-10-26T04:01:22;2.13;;;1.93;;
8596;SDS011;4336;49.310;8.646;2022-10-26T04:03:48;2.47;;;2.27;;
8596;SDS011;4336;49.310;8.646;2022-10-26T04:06:13;2.23;;;2.03;;
8596;SDS011;4336;49.310;8.646;2022-10-26T04:08:39;4.60;;;2.43;;
8596;SDS011;4336;49.310;8.646;2022-10-26T04:11:05;14.07;;;3.07;;
8596;SDS011;4336;49.310;8.646;2022-10-26T04:13:31;4.13;;;2.00;;
8596;SDS011;4336;49.310;8.646;2022-10-26T04:15:57;3.63;;;2.43;;
8596;SDS011;4336;49.310;8.646;2022-10-26T04:18:23;4.93;;;2.23;;
8596;SDS011;4336;49.310;8.646;2022-10-26T04:20:49;2.93;;;2.63;;
8596;SDS011;4336;49.310;8.646;2022-10-26T04:23:15;3.07;;;2.77;;
8596;SDS011;4336;49.310;8.646;2022-10-26T04:25:42;4.70;;;3.27;;
8596;SDS011;4336;49.310;8.646;2022-10-26T04:28:08;3.63;;;2.90;;
8596;SDS011;4336;49.310;8.646;2022-10-26T04:30:35;5.67;;;2.93;;
8596;SDS011;4336;49.310;8.646;2022-10-26T04:33:02;5.77;;;2.37;;
8596;SDS011;4336;49.310;8.646;2022-10-26T04:35:28;2.77;;;2.37;;
8596;SDS011;4336;49.310;8.646;2022-10-26T04:37:58;2.27;;;2.17;;
8596;SDS011;4336;49.310;8.646;2022-10-26T04:40:24;13.80;;;3.63;;
8596;SDS011;4336;49.310;8.646;2022-10-26T04:42:51;3.37;;;2.67;;
8596;SDS011;4336;49.310;8.646;2022-10-26T04:45:17;3.00;;;2.70;;
8596;SDS011;4336;49.310;8.646;2022-10-26T04:47:43;2.07;;;1.87;;
8596;SDS011;4336;49.310;8.646;2022-10-26T04:50:09;2.57;;;2.30;;
8596;SDS011;4336;49.310;8.646;2022-10-26T04:52:35;5.23;;;3.33;;
8596;SDS011;4336;49.310;8.646;2022-10-26T04:55:01;5.37;;;2.80;;
8596;SDS011;4336;49.310;8.646;2022-10-26T04:57:30;3.77;;;3.30;;
8596;SDS011;4336;49.310;8.646;2022-10-26T04:59:58;6.50;;;2.67;;
8596;SDS011;4336;49.310;8.646;2022-10-26T05:02:25;2.60;;;1.90;;
8596;SDS011;4336;49.310;8.646;2022-10-26T05:04:51;3.33;;;1.80;;
8596;SDS011;4336;49.310;8.646;2022-10-26T05:07:17;2.47;;;2.23;;
8596;SDS011;4336;49.310;8.646;2022-10-26T05:09:43;5.83;;;2.73;;
8596;SDS011;4336;49.310;8.646;2022-10-26T05:12:09;6.00;;;3.33;;
8596;SDS011;4336;49.310;8.646;2022-10-26T05:14:35;2.73;;;2.30;;
8596;SDS011;4336;49.310;8.646;2022-10-26T05:17:00;3.77;;;2.63;;
8596;SDS011;4336;49.310;8.646;2022-10-26T05:19:26;3.07;;;2.77;;
8596;SDS011;4336;49.310;8.646;2022-10-26T05:21:52;2.53;;;2.40;;
8596;SDS011;4336;49.310;8.646;2022-10-26T05:24:18;3.30;;;2.53;;
8596;SDS011;4336;49.310;8.646;2022-10-26T05:26:44;9.60;;;2.30;;
8596;SDS011;4336;49.310;8.646;2022-10-26T05:29:10;4.50;;;2.47;;
8596;SDS011;4336;49.310;8.646;2022-10-26T05:31:36;2.90;;;2.60;;
8596;SDS011;4336;49.310;8.646;2022-10-26T05:34:02;2.80;;;2.50;;
8596;SDS011;4336;49.310;8.646;2022-10-26T05:36:27;7.57;;;2.57;;
8596;SDS011;4336;49.310;8.646;2022-10-26T05:38:56;3.20;;;2.30;;
8596;SDS011;4336;49.310;8.646;2022-10-26T05:41:22;2.63;;;2.43;;
8596;SDS011;4336;49.310;8.646;2022-10-26T05:43:48;2.77;;;2.50;;
8596;SDS011;4336;49.310;8.646;2022-10-26T05:46:14;6.73;;;2.20;;
8596;SDS011;4336;49.310;8.646;2022-10-26T05:48:39;4.67;;;2.43;;
8596;SDS011;4336;49.310;8.646;2022-10-26T05:51:05;3.70;;;2.30;;
8596;SDS011;4336;49.310;8.646;2022-10-26T05:53:31;5.40;;;3.13;;
8596;SDS011;4336;49.310;8.646;2022-10-26T05:55:57;5.30;;;2.97;;
8596;SDS011;4336;49.310;8.646;2022-10-26T05:58:23;3.50;;;1.93;;
8596;SDS011;4336;49.310;8.646;2022-10-26T06:00:52;5.20;;;2.10;;
8596;SDS011;4336;49.310;8.646;2022-10-26T06:05:57;2.97;;;2.30;;
8596;SDS011;4336;49.310;8.646;2022-10-26T06:08:25;2.73;;;2.33;;
8596;SDS011;4336;49.310;8.646;2022-10-26T06:10:52;2.53;;;2.33;;
8596;SDS011;4336;49.310;8.646;2022-10-26T06:13:19;2.17;;;1.97;;
8596;SDS011;4336;49.310;8.646;2022-10-26T06:15:58;15.30;;;3.23;;
8596;SDS011;4336;49.310;8.646;2022-10-26T06:26:45;5.87;;;2.50;;
8596;SDS011;4336;49.310;8.646;2022-10-26T06:29:21;4.37;;;2.63;;
8596;SDS011;4336;49.310;8.646;2022-10-26T06:31:52;2.93;;;2.43;;
8596;SDS011;4336;49.310;8.646;2022-10-26T06:34:22;4.37;;;2.97;;
8596;SDS011;4336;49.310;8.646;2022-10-26T06:36:50;4.17;;;2.73;;
8596;SDS011;4336;49.310;8.646;2022-10-26T06:39:16;12.87;;;6.73;;
8596;SDS011;4336;49.310;8.646;2022-10-26T06:41:42;3.87;;;2.53;;
8596;SDS011;4336;49.310;8.646;2022-10-26T06:44:09;18.67;;;3.77;;
8596;SDS011;4336;49.310;8.646;2022-10-26T06:49:15;7.77;;;2.73;;
8596;SDS011;4336;49.310;8.646;2022-10-26T06:51:56;2.63;;;2.00;;
8596;SDS011;4336;49.310;8.646;2022-10-26T06:57:16;3.27;;;2.83;;
8596;SDS011;4336;49.310;8.646;2022-10-26T06:59:52;4.90;;;2.27;;
8596;SDS011;4336;49.310;8.646;2022-10-26T07:02:20;4.40;;;2.63;;
8596;SDS011;4336;49.310;8.646;2022-10-26T07:04:46;6.27;;;2.70;;
8596;SDS011;4336;49.310;8.646;2022-10-26T07:07:21;3.50;;;3.20;;
8596;SDS011;4336;49.310;8.646;2022-10-26T07:09:49;4.20;;;3.80;;
8596;SDS011;4336;49.310;8.646;2022-10-26T07:12:15;5.30;;;2.67;;
8596;SDS011;4336;49.310;8.646;2022-10-26T07:14:41;2.73;;;2.30;;
8596;SDS011;4336;49.310;8.646;2022-10-26T07:17:07;13.33;;;3.80;;
8596;SDS011;4336;49.310;8.646;2022-10-26T07:19:33;18.27;;;7.63;;
8596;SDS011;4336;49.310;8.646;2022-10-26T07:21:59;18.20;;;7.80;;
8596;SDS011;4336;49.310;8.646;2022-10-26T07:24:25;22.73;;;9.03;;
8596;SDS011;4336;49.310;8.646;2022-10-26T07:26:54;18.80;;;7.53;;
8596;SDS011;4336;49.310;8.646;2022-10-26T07:29:21;6.63;;;4.30;;
8596;SDS011;4336;49.310;8.646;2022-10-26T07:31:48;5.67;;;3.47;;
8596;SDS011;4336;49.310;8.646;2022-10-26T07:34:14;4.87;;;3.57;;
8596;SDS011;4336;49.310;8.646;2022-10-26T07:36:40;5.80;;;3.50;;
8596;SDS011;4336;49.310;8.646;2022-10-26T07:39:06;5.93;;;3.30;;
8596;SDS011;4336;49.310;8.646;2022-10-26T07:41:32;6.07;;;2.83;;
8596;SDS011;4336;49.310;8.646;2022-10-26T07:43:58;5.00;;;2.57;;
8596;SDS011;4336;49.310;8.646;2022-10-26T07:46:24;6.07;;;2.40;;
8596;SDS011;4336;49.310;8.646;2022-10-26T07:48:50;4.47;;;2.23;;
8596;SDS011;4336;49.310;8.646;2022-10-26T07:51:15;4.10;;;3.10;;
8596;SDS011;4336;49.310;8.646;2022-10-26T07:53:41;8.67;;;4.30;;
8596;SDS011;4336;49.310;8.646;2022-10-26T07:56:08;6.90;;;4.03;;
8596;SDS011;4336;49.310;8.646;2022-10-26T07:58:34;6.13;;;3.03;;
8596;SDS011;4336;49.310;8.646;2022-10-26T08:01:04;4.23;;;3.00;;
8596;SDS011;4336;49.310;8.646;2022-10-26T08:03:31;5.40;;;3.17;;
8596;SDS011;4336;49.310;8.646;2022-10-26T08:05:57;2.57;;;2.30;;
8596;SDS011;4336;49.310;8.646;2022-10-26T08:08:23;3.33;;;3.03;;
8596;SDS011;4336;49.310;8.646;2022-10-26T08:10:48;3.47;;;2.87;;
8596;SDS011;4336;49.310;8.646;2022-10-26T08:13:15;3.37;;;3.03;;
8596;SDS011;4336;49.310;8.646;2022-10-26T08:15:40;6.03;;;3.97;;
8596;SDS011;4336;49.310;8.646;2022-10-26T08:18:06;4.40;;;3.10;;
8596;SDS011;4336;49.310;8.646;2022-10-26T08:20:32;4.27;;;3.37;;
8596;SDS011;4336;49.310;8.646;2022-10-26T08:22:58;5.23;;;3.73;;
8596;SDS011;4336;49.310;8.646;2022-10-26T08:25:25;3.93;;;2.70;;
8596;SDS011;4336;49.310;8.646;2022-10-26T08:27:51;3.23;;;2.93;;
8596;SDS011;4336;49.310;8.646;2022-10-26T08:30:18;5.33;;;2.43;;
8596;SDS011;4336;49.310;8.646;2022-10-26T08:32:44;6.20;;;2.90;;
8596;SDS011;4336;49.310;8.646;2022-10-26T08:35:10;4.80;;;2.80;;
8596;SDS011;4336;49.310;8.646;2022-10-26T08:37:35;16.77;;;4.03;;
8596;SDS011;4336;49.310;8.646;2022-10-26T08:40:02;6.33;;;3.63;;
8596;SDS011;4336;49.310;8.646;2022-10-26T08:42:32;3.33;;;3.03;;
8596;SDS011;4336;49.310;8.646;2022-10-26T08:45:04;10.13;;;3.07;;
8596;SDS011;4336;49.310;8.646;2022-10-26T08:47:39;8.10;;;2.47;;
8596;SDS011;4336;49.310;8.646;2022-10-26T08:50:15;5.70;;;2.90;;
8596;SDS011;4336;49.310;8.646;2022-10-26T08:52:51;3.70;;;3.23;;
8596;SDS011;4336;49.310;8.646;2022-10-26T08:55:33;3.70;;;2.90;;
8596;SDS011;4336;49.310;8.646;2022-10-26T08:58:05;4.17;;;2.93;;
8596;SDS011;4336;49.310;8.646;2022-10-26T09:00:35;3.10;;;2.77;;
8596;SDS011;4336;49.310;8.646;2022-10-26T09:03:07;3.67;;;1.77;;
8596;SDS011;4336;49.310;8.646;2022-10-26T09:08:41;5.63;;;2.33;;
8596;SDS011;4336;49.310;8.646;2022-10-26T09:14:10;4.73;;;2.80;;
8596;SDS011;4336;49.310;8.646;2022-10-26T09:25:25;4.83;;;2.60;;
8596;SDS011;4336;49.310;8.646;2022-10-26T09:27:57;4.37;;;2.63;;
8596;SDS011;4336;49.310;8.646;2022-10-26T09:30:25;3.37;;;2.87;;
8596;SDS011;4336;49.310;8.646;2022-10-26T09:33:13;6.17;;;2.47;;
8596;SDS011;4336;49.310;8.646;2022-10-26T09:38:30;5.30;;;2.90;;
8596;SDS011;4336;49.310;8.646;2022-10-26T09:43:58;3.00;;;2.70;;
8596;SDS011;4336;49.310;8.646;2022-10-26T09:46:48;3.47;;;2.37;;
8596;SDS011;4336;49.310;8.646;2022-10-26T09:49:19;3.27;;;2.70;;
8596;SDS011;4336;49.310;8.646;2022-10-26T09:51:54;2.77;;;2.57;;
8596;SDS011;4336;49.310;8.646;2022-10-26T09:54:20;5.70;;;3.27;;
8596;SDS011;4336;49.310;8.646;2022-10-26T09:56:50;3.10;;;2.40;;
8596;SDS011;4336;49.310;8.646;2022-10-26T09:59:21;3.53;;;2.47;;
8596;SDS011;4336;49.310;8.646;2022-10-26T10:01:50;5.00;;;2.53;;
8596;SDS011;4336;49.310;8.646;2022-10-26T10:04:20;3.07;;;2.47;;
8596;SDS011;4336;49.310;8.646;2022-10-26T10:07:12;4.00;;;2.70;;
8596;SDS011;4336;49.310;8.646;2022-10-26T10:09:38;4.40;;;2.15;;
8596;SDS011;4336;49.310;8.646;2022-10-26T10:29:33;8.95;;;3.17;;
8596;SDS011;4336;49.310;8.646;2022-10-26T10:32:04;4.55;;;2.10;;
8596;SDS011;4336;49.310;8.646;2022-10-26T10:34:31;9.20;;;3.40;;
8596;SDS011;4336;49.310;8.646;2022-10-26T10:36:57;2.63;;;2.42;;
8596;SDS011;4336;49.310;8.646;2022-10-26T10:41:53;4.60;;;3.15;;
8596;SDS011;4336;49.310;8.646;2022-10-26T10:44:21;5.95;;;4.22;;
8596;SDS011;4336;49.310;8.646;2022-10-26T10:46:49;6.00;;;2.40;;
8596;SDS011;4336;49.310;8.646;2022-10-26T10:49:25;4.38;;;3.47;;
8596;SDS011;4336;49.310;8.646;2022-10-26T10:51:51;8.48;;;3.63;;
8596;SDS011;4336;49.310;8.646;2022-10-26T10:57:02;3.92;;;2.20;;
8596;SDS011;4336;49.310;8.646;2022-10-26T10:59:51;2.90;;;1.98;;
8596;SDS011;4336;49.310;8.646;2022-10-26T11:02:36;6.75;;;2.63;;
8596;SDS011;4336;49.310;8.646;2022-10-26T11:14:13;2.83;;;2.30;;
8596;SDS011;4336;49.310;8.646;2022-10-26T11:16:52;2.53;;;2.17;;
8596;SDS011;4336;49.310;8.646;2022-10-26T11:19:38;4.53;;;1.90;;
8596;SDS011;4336;49.310;8.646;2022-10-26T11:22:13;3.40;;;2.30;;
8596;SDS011;4336;49.310;8.646;2022-10-26T11:27:43;5.57;;;2.07;;
8596;SDS011;4336;49.310;8.646;2022-10-26T11:30:30;6.50;;;2.80;;
8596;SDS011;4336;49.310;8.646;2022-10-26T11:32:59;8.07;;;3.53;;
8596;SDS011;4336;49.310;8.646;2022-10-26T11:36:26;4.73;;;2.50;;
8596;SDS011;4336;49.310;8.646;2022-10-26T11:38:35;7.33;;;2.53;;
8596;SDS011;4336;49.310;8.646;2022-10-26T11:43:38;2.17;;;1.90;;
8596;SDS011;4336;49.310;8.646;2022-10-26T11:48:46;4.07;;;2.43;;
8596;SDS011;4336;49.310;8.646;2022-10-26T11:51:36;3.13;;;2.37;;
8596;SDS011;4336;49.310;8.646;2022-10-26T11:54:08;3.20;;;2.03;;
8596;SDS011;4336;49.310;8.646;2022-10-26T11:56:37;3.63;;;2.20;;
8596;SDS011;4336;49.310;8.646;2022-10-26T11:59:08;3.87;;;2.10;;
8596;SDS011;4336;49.310;8.646;2022-10-26T12:01:43;2.63;;;2.23;;
8596;SDS011;4336;49.310;8.646;2022-10-26T12:04:11;5.60;;;2.40;;
8596;SDS011;4336;49.310;8.646;2022-10-26T12:06:38;4.80;;;2.30;;
8596;SDS011;4336;49.310;8.646;2022-10-26T12:09:05;6.73;;;2.30;;
8596;SDS011;4336;49.310;8.646;2022-10-26T12:11:39;2.27;;;2.07;;
8596;SDS011;4336;49.310;8.646;2022-10-26T12:14:23;3.53;;;2.43;;
8596;SDS011;4336;49.310;8.646;2022-10-26T12:22:28;4.20;;;2.70;;
8596;SDS011;4336;49.310;8.646;2022-10-26T12:25:09;2.60;;;2.10;;
8596;SDS011;4336;49.310;8.646;2022-10-26T12:40:46;4.73;;;2.40;;
8596;SDS011;4336;49.310;8.646;2022-10-26T12:45:38;5.70;;;2.57;;
8596;SDS011;4336;49.310;8.646;2022-10-26T12:48:21;2.73;;;2.20;;
8596;SDS011;4336;49.310;8.646;2022-10-26T12:56:58;7.82;;;2.60;;
8596;SDS011;4336;49.310;8.646;2022-10-26T12:59:43;3.88;;;2.15;;
8596;SDS011;4336;49.310;8.646;2022-10-26T13:02:26;5.82;;;2.25;;
8596;SDS011;4336;49.310;8.646;2022-10-26T13:07:44;4.93;;;2.47;;
8596;SDS011;4336;49.310;8.646;2022-10-26T13:12:37;3.53;;;3.07;;
8596;SDS011;4336;49.310;8.646;2022-10-26T13:15:17;2.83;;;2.10;;
8596;SDS011;4336;49.310;8.646;2022-10-26T13:18:14;6.63;;;2.67;;
8596;SDS011;4336;49.310;8.646;2022-10-26T13:23:23;6.60;;;2.50;;
8596;SDS011;4336;49.310;8.646;2022-10-26T13:26:04;6.23;;;2.23;;
8596;SDS011;4336;49.310;8.646;2022-10-26T13:31:15;3.07;;;1.90;;
8596;SDS011;4336;49.310;8.646;2022-10-26T13:34:03;2.23;;;2.03;;
8596;SDS011;4336;49.310;8.646;2022-10-26T13:39:43;5.77;;;2.10;;
8596;SDS011;4336;49.310;8.646;2022-10-26T13:42:19;3.17;;;2.10;;
8596;SDS011;4336;49.310;8.646;2022-10-26T13:48:12;3.13;;;2.30;;
8596;SDS011;4336;49.310;8.646;2022-10-26T13:50:47;8.10;;;2.27;;
8596;SDS011;4336;49.310;8.646;2022-10-26T13:53:44;3.67;;;2.50;;
8596;SDS011;4336;49.310;8.646;2022-10-26T13:59:08;5.77;;;2.37;;
8596;SDS011;4336;49.310;8.646;2022-10-26T14:01:35;5.03;;;1.83;;
8596;SDS011;4336;49.310;8.646;2022-10-26T14:04:17;6.63;;;2.07;;
8596;SDS011;4336;49.310;8.646;2022-10-26T14:06:52;5.33;;;2.07;;
8596;SDS011;4336;49.310;8.646;2022-10-26T14:09:19;6.07;;;2.20;;
8596;SDS011;4336;49.310;8.646;2022-10-26T14:11:55;1.93;;;1.83;;
8596;SDS011;4336;49.310;8.646;2022-10-26T14:16:52;3.60;;;1.90;;
8596;SDS011;4336;49.310;8.646;2022-10-26T14:19:24;3.60;;;2.00;;
8596;SDS011;4336;49.310;8.646;2022-10-26T14:21:52;5.27;;;2.70;;
8596;SDS011;4336;49.310;8.646;2022-10-26T14:24:19;9.83;;;2.93;;
8596;SDS011;4336;49.310;8.646;2022-10-26T14:26:55;5.60;;;2.37;;
8596;SDS011;4336;49.310;8.646;2022-10-26T14:29:22;2.47;;;2.13;;
8596;SDS011;4336;49.310;8.646;2022-10-26T14:31:50;2.60;;;2.40;;
8596;SDS011;4336;49.310;8.646;2022-10-26T14:34:16;6.63;;;2.10;;
8596;SDS011;4336;49.310;8.646;2022-10-26T14:36:47;2.77;;;2.07;;
8596;SDS011;4336;49.310;8.646;2022-10-26T14:39:29;3.67;;;2.20;;
8596;SDS011;4336;49.310;8.646;2022-10-26T14:41:58;8.60;;;2.57;;
8596;SDS011;4336;49.310;8.646;2022-10-26T14:44:26;10.00;;;2.60;;
8596;SDS011;4336;49.310;8.646;2022-10-26T14:46:52;4.30;;;2.50;;
8596;SDS011;4336;49.310;8.646;2022-10-26T14:49:22;6.90;;;2.63;;
8596;SDS011;4336;49.310;8.646;2022-10-26T14:51:56;4.23;;;2.50;;
8596;SDS011;4336;49.310;8.646;2022-10-26T14:54:24;5.27;;;2.50;;
8596;SDS011;4336;49.310;8.646;2022-10-26T14:56:51;5.50;;;2.93;;
8596;SDS011;4336;49.310;8.646;2022-10-26T15:02:14;4.07;;;1.80;;
8596;SDS011;4336;49.310;8.646;2022-10-26T15:04:55;2.87;;;2.20;;
8596;SDS011;4336;49.310;8.646;2022-10-26T15:07:22;4.27;;;2.10;;
8596;SDS011;4336;49.310;8.646;2022-10-26T15:09:49;15.90;;;7.60;;
8596;SDS011;4336;49.310;8.646;2022-10-26T15:17:36;2.53;;;2.03;;
8596;SDS011;4336;49.310;8.646;2022-10-26T15:20:04;3.77;;;2.90;;
8596;SDS011;4336;49.310;8.646;2022-10-26T15:22:31;2.73;;;2.13;;
8596;SDS011;4336;49.310;8.646;2022-10-26T15:24:59;6.43;;;2.67;;
8596;SDS011;4336;49.310;8.646;2022-10-26T15:27:27;3.10;;;2.47;;
8596;SDS011;4336;49.310;8.646;2022-10-26T15:32:54;3.87;;;2.60;;
8596;SDS011;4336;49.310;8.646;2022-10-26T15:37:53;3.80;;;2.70;;
8596;SDS011;4336;49.310;8.646;2022-10-26T15:40:20;5.07;;;2.57;;
8596;SDS011;4336;49.310;8.646;2022-10-26T15:42:53;2.97;;;2.73;;
8596;SDS011;4336;49.310;8.646;2022-10-26T15:45:30;4.37;;;2.37;;
8596;SDS011;4336;49.310;8.646;2022-10-26T15:47:58;4.87;;;3.87;;
8596;SDS011;4336;49.310;8.646;2022-10-26T15:50:26;6.33;;;3.57;;
8596;SDS011;4336;49.310;8.646;2022-10-26T15:52:58;13.80;;;4.67;;
8596;SDS011;4336;49.310;8.646;2022-10-26T15:55:26;4.97;;;3.70;;
8596;SDS011;4336;49.310;8.646;2022-10-26T15:57:53;5.53;;;3.40;;
8596;SDS011;4336;49.310;8.646;2022-10-26T16:00:18;7.10;;;2.40;;
8596;SDS011;4336;49.310;8.646;2022-10-26T16:02:44;8.23;;;2.43;;
8596;SDS011;4336;49.310;8.646;2022-10-26T16:05:14;5.87;;;2.60;;
8596;SDS011;4336;49.310;8.646;2022-10-26T16:07:40;10.40;;;2.57;;
8596;SDS011;4336;49.310;8.646;2022-10-26T16:10:11;6.63;;;3.67;;
8596;SDS011;4336;49.310;8.646;2022-10-26T16:12:41;5.13;;;2.47;;
8596;SDS011;4336;49.310;8.646;2022-10-26T16:15:08;4.20;;;2.50;;
8596;SDS011;4336;49.310;8.646;2022-10-26T16:17:49;7.17;;;2.90;;
8596;SDS011;4336;49.310;8.646;2022-10-26T16:20:16;7.30;;;2.63;;
8596;SDS011;4336;49.310;8.646;2022-10-26T16:22:45;5.80;;;3.63;;
8596;SDS011;4336;49.310;8.646;2022-10-26T16:25:13;4.97;;;3.70;;
8596;SDS011;4336;49.310;8.646;2022-10-26T16:27:39;8.93;;;2.70;;
8596;SDS011;4336;49.310;8.646;2022-10-26T16:30:05;6.83;;;3.20;;
8596;SDS011;4336;49.310;8.646;2022-10-26T16:32:31;15.03;;;2.87;;
8596;SDS011;4336;49.310;8.646;2022-10-26T16:34:57;3.73;;;2.73;;
8596;SDS011;4336;49.310;8.646;2022-10-26T16:37:23;6.00;;;4.17;;
8596;SDS011;4336;49.310;8.646;2022-10-26T16:39:48;8.53;;;6.03;;
8596;SDS011;4336;49.310;8.646;2022-10-26T16:42:14;44.10;;;25.77;;
8596;SDS011;4336;49.310;8.646;2022-10-26T16:44:40;23.57;;;14.83;;
8596;SDS011;4336;49.310;8.646;2022-10-26T16:47:06;12.20;;;7.70;;
8596;SDS011;4336;49.310;8.646;2022-10-26T16:49:32;14.23;;;10.03;;
8596;SDS011;4336;49.310;8.646;2022-10-26T16:51:57;16.17;;;9.63;;
8596;SDS011;4336;49.310;8.646;2022-10-26T16:54:23;10.77;;;6.30;;
8596;SDS011;4336;49.310;8.646;2022-10-26T16:56:50;13.13;;;6.17;;
8596;SDS011;4336;49.310;8.646;2022-10-26T16:59:15;14.57;;;4.30;;
8596;SDS011;4336;49.310;8.646;2022-10-26T17:01:41;10.07;;;4.40;;
8596;SDS011;4336;49.310;8.646;2022-10-26T17:04:08;13.63;;;8.67;;
8596;SDS011;4336;49.310;8.646;2022-10-26T17:06:33;13.23;;;6.93;;
8596;SDS011;4336;49.310;8.646;2022-10-26T17:08:59;14.37;;;7.73;;
8596;SDS011;4336;49.310;8.646;2022-10-26T17:11:25;13.33;;;7.87;;
8596;SDS011;4336;49.310;8.646;2022-10-26T17:13:53;13.13;;;5.67;;
8596;SDS011;4336;49.310;8.646;2022-10-26T17:16:20;8.43;;;4.80;;
8596;SDS011;4336;49.310;8.646;2022-10-26T17:18:47;10.43;;;5.67;;
8596;SDS011;4336;49.310;8.646;2022-10-26T17:21:13;9.43;;;4.80;;
8596;SDS011;4336;49.310;8.646;2022-10-26T17:23:40;10.57;;;5.70;;
8596;SDS011;4336;49.310;8.646;2022-10-26T17:26:07;14.03;;;6.00;;
8596;SDS011;4336;49.310;8.646;2022-10-26T17:28:35;6.77;;;5.07;;
8596;SDS011;4336;49.310;8.646;2022-10-26T17:31:07;7.80;;;3.73;;
8596;SDS011;4336;49.310;8.646;2022-10-26T17:33:36;6.97;;;4.10;;
8596;SDS011;4336;49.310;8.646;2022-10-26T17:36:03;6.60;;;3.80;;
8596;SDS011;4336;49.310;8.646;2022-10-26T17:38:31;5.13;;;3.70;;
8596;SDS011;4336;49.310;8.646;2022-10-26T17:40:59;10.97;;;4.70;;
8596;SDS011;4336;49.310;8.646;2022-10-26T17:43:28;5.27;;;3.80;;
8596;SDS011;4336;49.310;8.646;2022-10-26T17:45:57;7.10;;;4.87;;
8596;SDS011;4336;49.310;8.646;2022-10-26T17:48:23;8.43;;;4.97;;
8596;SDS011;4336;49.310;8.646;2022-10-26T17:50:50;9.73;;;4.30;;
8596;SDS011;4336;49.310;8.646;2022-10-26T17:53:16;12.10;;;5.53;;
8596;SDS011;4336;49.310;8.646;2022-10-26T17:55:41;8.53;;;6.40;;
8596;SDS011;4336;49.310;8.646;2022-10-26T17:58:07;6.10;;;4.90;;
8596;SDS011;4336;49.310;8.646;2022-10-26T18:00:33;9.00;;;4.33;;
8596;SDS011;4336;49.310;8.646;2022-10-26T18:02:58;8.20;;;4.40;;
8596;SDS011;4336;49.310;8.646;2022-10-26T18:05:24;5.27;;;3.33;;
8596;SDS011;4336;49.310;8.646;2022-10-26T18:07:50;6.43;;;4.23;;
8596;SDS011;4336;49.310;8.646;2022-10-26T18:10:16;8.17;;;3.90;;
8596;SDS011;4336;49.310;8.646;2022-10-26T18:12:42;4.73;;;3.70;;
8596;SDS011;4336;49.310;8.646;2022-10-26T18:15:07;7.87;;;3.67;;
8596;SDS011;4336;49.310;8.646;2022-10-26T18:17:33;11.30;;;4.30;;
8596;SDS011;4336;49.310;8.646;2022-10-26T18:19:59;7.50;;;4.40;;
8596;SDS011;4336;49.310;8.646;2022-10-26T18:22:25;9.30;;;4.37;;
8596;SDS011;4336;49.310;8.646;2022-10-26T18:24:50;6.77;;;3.93;;